createdAt,value
2023-05-16T00:03:38.236Z,90.70
2023-05-16T00:07:36.050Z,90.69
2023-05-16T00:11:34.062Z,90.61
2023-05-16T00:15:33.037Z,90.64
2023-05-16T00:19:31.027Z,90.72
2023-05-16T00:23:29.072Z,90.84
2023-05-16T00:27:26.999Z,90.77
2023-05-16T00:31:25.069Z,90.72
2023-05-16T00:35:23.099Z,90.70
2023-05-16T00:39:21.024Z,90.62
2023-05-16T00:43:20.007Z,90.59
2023-05-16T00:47:18.059Z,90.53
2023-05-16T00:51:16.001Z,90.56
2023-05-16T00:55:14.030Z,90.52
2023-05-16T00:59:11.980Z,90.48
2023-05-16T01:03:11.118Z,90.48
2023-05-16T01:07:10.969Z,90.44
2023-05-16T01:11:15.023Z,90.44
2023-05-16T01:15:17.977Z,90.45
2023-05-16T01:19:46.008Z,90.46
2023-05-16T01:24:01.970Z,90.42
2023-05-16T01:27:59.942Z,90.41
2023-05-16T01:31:57.963Z,90.40
2023-05-16T01:36:12.947Z,90.42
2023-05-16T01:40:52.964Z,90.47
2023-05-16T01:45:04.924Z,90.51
2023-05-16T01:49:16.940Z,90.46
2023-05-16T01:53:38.003Z,90.47
2023-05-16T01:57:39.886Z,90.41
2023-05-16T02:01:38.099Z,90.44
2023-05-16T02:05:35.882Z,90.49
2023-05-16T02:09:35.891Z,90.56
2023-05-16T02:13:33.870Z,90.54
2023-05-16T02:17:31.972Z,90.61
2023-05-16T02:21:29.955Z,90.62
2023-05-16T02:25:29.889Z,90.63
2023-05-16T02:29:27.867Z,90.69
2023-05-16T02:33:25.902Z,90.71
2023-05-16T02:37:23.916Z,90.70
2023-05-16T02:41:21.866Z,90.70
2023-05-16T02:45:19.867Z,90.84
2023-05-16T02:49:17.863Z,90.85
2023-05-16T02:53:15.855Z,90.97
2023-05-16T02:57:13.931Z,91.03
2023-05-16T03:01:11.878Z,91.13
2023-05-16T03:05:09.861Z,91.39
2023-05-16T03:09:07.843Z,91.47
2023-05-16T03:13:07.861Z,91.50
2023-05-16T03:17:05.821Z,91.61
2023-05-16T03:21:03.843Z,91.73
2023-05-16T03:25:01.841Z,92.22
2023-05-16T03:28:59.856Z,90.18
2023-05-16T03:32:59.884Z,84.27
2023-05-16T03:36:57.824Z,75.15
2023-05-16T03:40:55.769Z,65.22
2023-05-16T03:44:53.777Z,57.27
2023-05-16T03:48:51.782Z,50.95
2023-05-16T03:52:49.853Z,48.15
2023-05-16T03:56:47.719Z,42.04
2023-05-16T04:00:45.856Z,39.95
2023-05-16T04:04:43.764Z,37.04
2023-05-16T04:08:41.771Z,34.94
2023-05-16T04:12:39.754Z,33.59
2023-05-16T04:16:37.792Z,32.11
2023-05-16T04:20:35.733Z,29.91
2023-05-16T04:24:35.781Z,28.33
2023-05-16T04:28:34.821Z,26.65
2023-05-16T04:32:32.754Z,26.83
2023-05-16T04:36:30.730Z,26.34
2023-05-16T04:40:28.758Z,25.41
2023-05-16T04:44:26.792Z,24.72
2023-05-16T04:48:24.839Z,25.27
2023-05-16T04:52:22.738Z,26.68
2023-05-16T04:56:20.747Z,26.93
2023-05-16T05:00:19.766Z,26.78
2023-05-16T05:04:17.796Z,26.94
2023-05-16T05:08:15.729Z,26.91
2023-05-16T05:12:13.760Z,26.78
2023-05-16T05:16:11.695Z,27.48
2023-05-16T05:20:13.712Z,30.77
2023-05-16T05:24:11.695Z,34.30
2023-05-16T05:28:09.722Z,37.71
2023-05-16T05:32:07.822Z,40.43
2023-05-16T05:36:05.714Z,43.36
2023-05-16T05:40:03.719Z,45.13
2023-05-16T05:44:01.714Z,46.95
2023-05-16T05:47:59.693Z,50.19
2023-05-16T05:51:58.740Z,51.57
2023-05-16T05:55:56.706Z,53.19
2023-05-16T05:59:41.392Z,54.09
2023-05-16T06:03:06.062Z,54.46
2023-05-16T06:06:31.340Z,55.35
2023-05-16T06:09:55.065Z,55.93
2023-05-16T06:13:18.915Z,55.84
2023-05-16T06:16:42.952Z,56.19
2023-05-16T06:20:07.575Z,56.73
2023-05-16T06:23:31.801Z,56.54
2023-05-16T06:26:55.815Z,56.70
2023-05-16T06:30:19.768Z,57.39
2023-05-16T06:33:43.550Z,58.03
2023-05-16T06:37:07.407Z,58.02
2023-05-16T06:40:31.231Z,57.37
2023-05-16T06:43:55.132Z,57.39
2023-05-16T06:47:18.982Z,58.02
2023-05-16T06:50:43.052Z,57.97
2023-05-16T06:54:07.267Z,58.12
2023-05-16T06:57:31.521Z,58.03
2023-05-16T07:00:55.785Z,58.26
2023-05-16T07:04:19.713Z,57.42
2023-05-16T07:07:43.640Z,58.07
2023-05-16T07:11:07.587Z,58.47
2023-05-16T07:14:31.506Z,58.82
2023-05-16T07:17:55.437Z,57.81
2023-05-16T07:21:19.491Z,57.91
2023-05-16T07:24:43.370Z,57.64
2023-05-16T07:28:07.349Z,57.14
2023-05-16T07:31:32.371Z,57.98
2023-05-16T07:34:56.304Z,58.12
2023-05-16T07:38:20.397Z,57.56
2023-05-16T07:41:44.336Z,56.95
2023-05-16T07:45:09.031Z,56.16
2023-05-16T07:48:33.058Z,56.29
2023-05-16T07:51:57.396Z,55.69
2023-05-16T07:55:22.297Z,57.18
2023-05-16T07:58:46.353Z,56.03
2023-05-16T08:02:11.518Z,55.88
2023-05-16T08:05:35.883Z,54.86
2023-05-16T08:08:59.831Z,55.54
2023-05-16T08:12:25.372Z,56.32
2023-05-16T08:15:49.316Z,55.72
2023-05-16T08:19:13.346Z,55.24
2023-05-16T08:22:37.496Z,55.26
2023-05-16T08:26:01.627Z,54.76
2023-05-16T08:29:25.820Z,52.92
2023-05-16T08:32:49.735Z,52.56
2023-05-16T08:36:15.936Z,52.48
2023-05-16T08:39:40.474Z,52.72
2023-05-16T08:43:05.352Z,52.30
2023-05-16T08:46:30.254Z,51.63
2023-05-16T08:49:58.697Z,52.14
2023-05-16T08:53:28.166Z,51.48
2023-05-16T08:56:53.155Z,51.52
2023-05-16T09:00:19.834Z,50.65
2023-05-16T09:03:45.189Z,50.99
2023-05-16T09:07:09.075Z,50.22
2023-05-16T09:10:32.911Z,50.47
2023-05-16T09:13:56.734Z,50.72
2023-05-16T09:17:32.016Z,49.90
2023-05-16T09:21:02.987Z,49.64
2023-05-16T09:24:27.535Z,49.53
2023-05-16T09:27:59.137Z,49.49
2023-05-16T09:31:25.136Z,49.62
2023-05-16T09:34:51.725Z,49.03
2023-05-16T09:38:17.458Z,49.18
2023-05-16T09:41:41.480Z,49.70
2023-05-16T09:45:05.768Z,48.62
2023-05-16T09:48:29.646Z,49.27
2023-05-16T09:51:53.599Z,50.19
2023-05-16T09:55:17.525Z,50.18
2023-05-16T09:58:44.555Z,50.13
2023-05-16T10:02:08.927Z,48.87
2023-05-16T10:05:33.339Z,48.54
2023-05-16T10:08:57.579Z,48.59
2023-05-16T10:12:28.677Z,48.24
2023-05-16T10:15:57.428Z,48.62
2023-05-16T10:19:24.655Z,47.73
2023-05-16T10:22:50.927Z,48.19
2023-05-16T10:26:18.196Z,47.71
2023-05-16T10:29:54.316Z,47.38
2023-05-16T10:33:20.292Z,47.99
2023-05-16T10:36:46.996Z,48.34
2023-05-16T10:40:11.806Z,47.43
2023-05-16T10:43:35.675Z,47.46
2023-05-16T10:47:00.935Z,47.29
2023-05-16T10:50:36.315Z,47.18
2023-05-16T10:54:06.426Z,46.81
2023-05-16T10:57:33.990Z,47.18
2023-05-16T11:01:24.321Z,45.97
2023-05-16T11:04:52.729Z,46.21
2023-05-16T11:08:16.632Z,45.07
2023-05-16T11:11:57.792Z,45.65
2023-05-16T11:15:32.514Z,45.63
2023-05-16T11:18:56.539Z,45.20
2023-05-16T11:22:21.143Z,45.27
2023-05-16T11:25:51.137Z,44.65
2023-05-16T11:29:16.287Z,44.77
2023-05-16T11:32:42.682Z,44.36
2023-05-16T11:36:15.741Z,44.13
2023-05-16T11:39:40.013Z,43.62
2023-05-16T11:43:07.037Z,43.71
2023-05-16T11:46:31.236Z,43.99
2023-05-16T11:49:59.345Z,44.05
2023-05-16T11:53:23.430Z,44.32
2023-05-16T11:56:47.852Z,43.71
2023-05-16T12:00:19.585Z,42.59
2023-05-16T12:03:43.693Z,42.81
2023-05-16T12:07:08.009Z,42.73
2023-05-16T12:10:34.651Z,42.61
2023-05-16T12:13:59.112Z,42.18
2023-05-16T12:17:23.282Z,42.47
2023-05-16T12:20:47.976Z,42.37
2023-05-16T12:24:13.563Z,41.82
2023-05-16T12:27:39.342Z,42.08
2023-05-16T12:31:04.576Z,42.05
2023-05-16T12:34:31.062Z,42.90
2023-05-16T12:37:56.229Z,42.54
2023-05-16T12:41:24.364Z,42.61
2023-05-16T12:44:48.307Z,42.25
2023-05-16T12:48:16.252Z,41.07
2023-05-16T12:51:40.417Z,40.65
2023-05-16T12:55:04.643Z,41.25
2023-05-16T12:58:28.753Z,41.18
2023-05-16T13:01:52.950Z,40.84
2023-05-16T13:05:17.637Z,40.45
2023-05-16T13:08:41.428Z,41.05
2023-05-16T13:12:05.771Z,41.08
2023-05-16T13:15:29.850Z,41.48
2023-05-16T13:18:54.250Z,40.38
2023-05-16T13:22:18.186Z,41.90
2023-05-16T13:25:42.028Z,42.32
2023-05-16T13:29:05.956Z,43.22
2023-05-16T13:32:50.439Z,43.33
2023-05-16T13:40:49.544Z,41.79
2023-05-16T13:44:47.610Z,42.41
2023-05-16T13:48:45.380Z,41.29
2023-05-16T13:52:43.558Z,40.63
2023-05-16T13:56:41.310Z,39.93
2023-05-16T14:00:45.149Z,40.70
2023-05-16T14:04:44.393Z,40.43
2023-05-16T14:08:42.310Z,40.23
2023-05-16T14:12:40.435Z,40.12
2023-05-16T14:16:38.410Z,40.57
2023-05-16T14:20:36.612Z,40.28
2023-05-16T14:24:34.342Z,41.15
2023-05-16T14:28:32.360Z,41.41
2023-05-16T14:32:30.422Z,41.25
2023-05-16T14:36:29.732Z,41.89
2023-05-16T14:40:28.329Z,41.66
2023-05-16T14:44:27.278Z,41.87
2023-05-16T14:48:25.268Z,42.10
2023-05-16T14:52:23.330Z,42.06
2023-05-16T14:56:21.336Z,42.25
2023-05-16T15:00:19.282Z,43.29
2023-05-16T15:04:17.327Z,43.30
2023-05-16T15:08:15.239Z,43.27
2023-05-16T15:12:13.254Z,43.91
2023-05-16T15:16:11.477Z,44.56
2023-05-16T15:20:09.278Z,44.59
2023-05-16T15:24:07.343Z,44.15
2023-05-16T15:28:07.375Z,44.12
2023-05-16T15:32:05.295Z,44.35
2023-05-16T15:36:03.245Z,44.45
2023-05-16T15:40:01.366Z,45.35
2023-05-16T15:43:59.303Z,45.65
2023-05-16T15:47:57.271Z,46.30
2023-05-16T15:51:55.193Z,45.92
2023-05-16T15:55:54.237Z,46.54
2023-05-16T15:59:56.239Z,46.58
2023-05-16T16:04:03.368Z,46.66
2023-05-16T16:08:01.221Z,47.09
2023-05-16T16:12:03.268Z,46.87
2023-05-16T16:16:01.285Z,46.91
2023-05-16T16:19:59.223Z,46.75
2023-05-16T16:23:57.182Z,47.28
2023-05-16T16:27:55.209Z,47.57
2023-05-16T16:31:53.275Z,47.76
2023-05-16T16:35:51.188Z,48.26
2023-05-16T16:39:49.182Z,48.22
2023-05-16T16:43:47.177Z,48.51
2023-05-16T16:47:46.274Z,50.83
2023-05-16T16:51:44.131Z,51.10
2023-05-16T16:55:42.316Z,52.45
2023-05-16T16:59:40.231Z,56.43
2023-05-16T17:03:38.212Z,57.81
2023-05-16T17:07:36.210Z,59.38
2023-05-16T17:11:36.201Z,61.41
2023-05-16T17:15:34.238Z,62.72
2023-05-16T17:19:32.162Z,63.04
2023-05-16T17:23:30.200Z,63.56
2023-05-16T17:27:28.159Z,64.29
2023-05-16T17:31:26.110Z,64.40
2023-05-16T17:35:24.103Z,64.35
2023-05-16T17:39:22.188Z,64.82
2023-05-16T17:43:20.078Z,64.47
2023-05-16T17:47:18.109Z,65.72
2023-05-16T17:51:16.089Z,66.28
2023-05-16T17:55:14.118Z,66.92
2023-05-16T17:59:12.082Z,67.39
2023-05-16T18:03:10.176Z,67.33
2023-05-16T18:07:08.098Z,67.92
2023-05-16T18:11:06.124Z,68.57
2023-05-16T18:15:04.088Z,68.27
2023-05-16T18:19:02.190Z,68.13
2023-05-16T18:23:00.069Z,67.87
2023-05-16T18:26:58.145Z,67.75
2023-05-16T18:30:56.052Z,68.11
2023-05-16T18:34:54.053Z,68.37
2023-05-16T18:38:52.090Z,68.64
2023-05-16T18:42:50.058Z,68.91
2023-05-16T18:46:48.032Z,69.30
2023-05-16T18:50:46.090Z,69.43
2023-05-16T18:54:44.100Z,68.99
2023-05-16T18:58:42.144Z,69.29
2023-05-16T19:02:42.556Z,69.44
2023-05-16T19:06:41.045Z,69.50
2023-05-16T19:10:44.025Z,69.22
2023-05-16T19:14:42.026Z,69.25
2023-05-16T19:18:41.262Z,69.65
2023-05-16T19:23:11.050Z,69.66
2023-05-16T19:27:09.057Z,69.69
2023-05-16T19:31:07.290Z,69.91
2023-05-16T19:35:05.166Z,70.17
2023-05-16T19:39:03.014Z,70.25
2023-05-16T19:43:00.999Z,70.51
2023-05-16T19:47:00.596Z,70.76
2023-05-16T19:50:58.999Z,70.98
2023-05-16T19:54:56.983Z,70.92
2023-05-16T19:58:54.986Z,70.87
2023-05-16T20:02:53.244Z,71.13
2023-05-16T20:06:50.922Z,71.35
2023-05-16T20:10:49.036Z,71.35
2023-05-16T20:14:47.152Z,71.56
2023-05-16T20:18:45.062Z,71.71
2023-05-16T20:22:44.992Z,71.66
2023-05-16T20:26:42.953Z,71.68
2023-05-16T20:30:40.981Z,71.86
2023-05-16T20:34:41.532Z,72.07
2023-05-16T20:38:39.904Z,72.15
2023-05-16T20:42:37.965Z,71.88
2023-05-16T20:46:35.864Z,71.64
2023-05-16T20:50:33.946Z,71.64
2023-05-16T20:54:31.950Z,71.98
2023-05-16T20:58:29.917Z,72.30
2023-05-16T21:02:27.939Z,72.33
2023-05-16T21:06:25.909Z,72.44
2023-05-16T21:10:24.022Z,72.57
2023-05-16T21:14:21.931Z,72.69
2023-05-16T21:18:20.001Z,72.64
2023-05-16T21:22:17.958Z,72.89
2023-05-16T21:26:15.923Z,73.12
2023-05-16T21:30:13.901Z,73.22
2023-05-16T21:34:12.024Z,73.27
2023-05-16T21:38:09.951Z,73.48
2023-05-16T21:42:08.871Z,73.67
2023-05-16T21:46:06.922Z,73.77
2023-05-16T21:50:04.851Z,73.92
2023-05-16T21:54:02.870Z,74.48
2023-05-16T21:58:00.860Z,75.19
2023-05-16T22:01:58.955Z,75.89
2023-05-16T22:05:56.838Z,76.28
2023-05-16T22:09:57.009Z,76.85
2023-05-16T22:13:55.190Z,77.41
2023-05-16T22:17:54.924Z,78.39
2023-05-16T22:21:52.821Z,78.60
2023-05-16T22:25:50.866Z,79.05
2023-05-16T22:29:48.808Z,79.55
2023-05-16T22:33:46.934Z,80.79
2023-05-16T22:37:44.811Z,81.44
2023-05-16T22:41:42.856Z,82.59
2023-05-16T22:45:40.805Z,83.21
2023-05-16T22:49:38.809Z,83.63
2023-05-16T22:53:36.827Z,83.80
2023-05-16T22:57:34.812Z,84.27
2023-05-16T23:01:25.917Z,84.65
2023-05-16T23:05:23.809Z,84.83
2023-05-16T23:09:21.780Z,85.78
2023-05-16T23:13:19.809Z,86.11
2023-05-16T23:17:17.773Z,87.07
2023-05-16T23:21:15.796Z,87.51
2023-05-16T23:25:14.007Z,87.64
2023-05-16T23:29:11.762Z,87.84
2023-05-16T23:33:09.864Z,87.60
2023-05-16T23:37:07.784Z,87.72
2023-05-16T23:41:05.750Z,87.86
2023-05-16T23:45:03.815Z,88.08
2023-05-16T23:49:03.757Z,87.98
2023-05-16T23:53:01.840Z,88.18
2023-05-16T23:56:59.774Z,88.58
